Time;durP1;ratioP1;P1;durP2;ratioP2;P2;SDS_P1;SDS_P2;PMS_P1;PMS_P2;Temp;Humidity;BMP_temperature;BMP_pressure;BME280_temperature;BME280_humidity;BME280_pressure;Samples;Min_cycle;Max_cycle;Signal;HPM_P1;HPM_P2
2022/04/18 00:01:16;;;;;;;3.17;2.40;;;;;;;;;;5019800;28;20179;-77
2022/04/18 00:03:43;;;;;;;3.77;2.50;;;;;;;;;;5025946;28;20211;-77
2022/04/18 00:06:10;;;;;;;2.67;2.43;;;;;;;;;;5014281;28;20537;-80
2022/04/18 00:08:36;;;;;;;3.23;2.57;;;;;;;;;;4991073;28;20187;-79
2022/04/18 00:11:04;;;;;;;4.63;2.50;;;;;;;;;;4988638;28;20238;-80
2022/04/18 00:13:33;;;;;;;2.80;2.10;;;;;;;;;;5007617;28;20205;-80
2022/04/18 00:16:00;;;;;;;3.47;2.33;;;;;;;;;;5010730;28;20538;-78
2022/04/18 00:18:26;;;;;;;2.50;2.27;;;;;;;;;;5011785;28;20199;-78
2022/04/18 00:20:53;;;;;;;3.57;2.40;;;;;;;;;;5008082;28;20192;-80
2022/04/18 00:23:20;;;;;;;2.70;2.37;;;;;;;;;;5006289;28;20301;-80
2022/04/18 00:25:46;;;;;;;3.57;2.20;;;;;;;;;;4987700;28;20570;-78
2022/04/18 00:28:15;;;;;;;3.70;2.43;;;;;;;;;;4988147;28;20591;-78
2022/04/18 00:30:42;;;;;;;2.67;2.20;;;;;;;;;;5002578;28;20476;-78
2022/04/18 00:33:09;;;;;;;4.57;2.60;;;;;;;;;;5005994;28;20193;-80
2022/04/18 00:35:36;;;;;;;3.80;2.30;;;;;;;;;;5001207;28;20226;-79
2022/04/18 00:38:03;;;;;;;3.50;2.30;;;;;;;;;;5009480;28;20183;-79
2022/04/18 00:40:30;;;;;;;3.43;2.40;;;;;;;;;;5003560;28;20180;-79
2022/04/18 00:43:04;;;;;;;3.13;2.40;;;;;;;;;;5006690;28;20185;-80
2022/04/18 00:45:31;;;;;;;2.53;2.30;;;;;;;;;;5002128;28;20262;-79
2022/04/18 00:47:58;;;;;;;3.03;2.20;;;;;;;;;;5001267;28;20192;-80
2022/04/18 00:50:26;;;;;;;5.23;2.70;;;;;;;;;;5007070;28;20184;-79
2022/04/18 00:52:54;;;;;;;3.47;2.63;;;;;;;;;;5021474;28;20199;-80
2022/04/18 00:55:26;;;;;;;2.90;2.50;;;;;;;;;;4992933;28;20298;-80
2022/04/18 00:57:54;;;;;;;3.73;2.47;;;;;;;;;;5002535;28;20302;-79
2022/04/18 01:00:21;;;;;;;6.80;2.40;;;;;;;;;;5019435;28;20195;-80
2022/04/18 01:02:51;;;;;;;3.20;2.60;;;;;;;;;;5004667;28;20203;-79
2022/04/18 01:05:21;;;;;;;4.20;2.63;;;;;;;;;;5004222;28;20184;-78
2022/04/18 01:07:48;;;;;;;3.30;2.40;;;;;;;;;;5003959;28;20358;-79
2022/04/18 01:10:15;;;;;;;3.83;2.73;;;;;;;;;;5008085;28;20187;-77
2022/04/18 01:12:43;;;;;;;3.47;2.43;;;;;;;;;;5022301;28;20303;-80
2022/04/18 01:15:38;;;;;;;3.93;2.40;;;;;;;;;;4982135;28;20262;-79
2022/04/18 01:18:11;;;;;;;3.07;2.23;;;;;;;;;;5002144;28;20214;-79
2022/04/18 01:21:10;;;;;;;4.70;2.90;;;;;;;;;;4993182;28;20199;-80
2022/04/18 01:29:54;;;;;;;3.97;2.73;;;;;;;;;;4992774;28;20191;-80
2022/04/18 01:32:21;;;;;;;5.17;2.77;;;;;;;;;;4987876;28;20222;-80
2022/04/18 01:34:48;;;;;;;5.03;3.17;;;;;;;;;;5011393;28;20551;-80
2022/04/18 01:37:15;;;;;;;5.07;3.20;;;;;;;;;;5006458;28;20585;-79
2022/04/18 01:39:42;;;;;;;4.83;3.00;;;;;;;;;;5010254;28;20617;-80
2022/04/18 01:42:08;;;;;;;6.17;2.73;;;;;;;;;;5010307;28;20622;-80
2022/04/18 01:44:35;;;;;;;3.50;2.57;;;;;;;;;;5017694;28;20242;-80
2022/04/18 01:47:02;;;;;;;3.23;2.77;;;;;;;;;;5018696;28;20211;-79
2022/04/18 01:49:29;;;;;;;4.27;2.80;;;;;;;;;;5010348;28;20191;-80
2022/04/18 01:51:56;;;;;;;3.10;2.37;;;;;;;;;;5010037;28;20187;-80
2022/04/18 01:54:23;;;;;;;3.53;2.90;;;;;;;;;;4987895;28;20503;-80
2022/04/18 01:56:50;;;;;;;4.40;2.93;;;;;;;;;;5003444;28;20227;-80
2022/04/18 01:59:17;;;;;;;3.47;2.63;;;;;;;;;;4999988;28;20191;-80
2022/04/18 02:01:45;;;;;;;6.27;2.93;;;;;;;;;;4987722;28;20251;-78
2022/04/18 02:04:11;;;;;;;3.73;2.70;;;;;;;;;;5005164;28;20179;-80
2022/04/18 02:06:38;;;;;;;4.40;2.67;;;;;;;;;;4990272;28;20216;-79
2022/04/18 02:09:05;;;;;;;5.17;2.70;;;;;;;;;;4989396;28;20191;-80
2022/04/18 02:11:31;;;;;;;3.60;2.73;;;;;;;;;;5006096;28;20218;-79
2022/04/18 02:13:59;;;;;;;5.13;2.90;;;;;;;;;;5003720;28;20280;-80
2022/04/18 02:16:28;;;;;;;3.30;2.80;;;;;;;;;;5004137;28;20249;-80
2022/04/18 02:18:56;;;;;;;3.70;2.73;;;;;;;;;;5015171;28;20180;-80
2022/04/18 02:21:23;;;;;;;3.37;2.70;;;;;;;;;;4986553;28;20253;-80
2022/04/18 02:23:50;;;;;;;4.00;2.80;;;;;;;;;;5004699;28;20558;-80
2022/04/18 02:26:17;;;;;;;3.60;2.93;;;;;;;;;;5010279;28;20207;-80
2022/04/18 02:28:48;;;;;;;4.33;3.03;;;;;;;;;;5002658;28;20214;-80
2022/04/18 02:31:15;;;;;;;4.67;3.13;;;;;;;;;;5008052;28;20213;-80
2022/04/18 02:33:42;;;;;;;3.67;3.23;;;;;;;;;;4992305;28;20195;-80
2022/04/18 02:36:10;;;;;;;3.83;2.93;;;;;;;;;;4992506;28;20215;-80
2022/04/18 02:38:36;;;;;;;3.30;2.70;;;;;;;;;;5007944;28;20245;-80
2022/04/18 02:41:03;;;;;;;4.20;3.10;;;;;;;;;;5007510;28;20261;-78
2022/04/18 02:43:30;;;;;;;5.20;3.37;;;;;;;;;;4991114;28;20656;-80
2022/04/18 02:46:02;;;;;;;3.77;3.03;;;;;;;;;;4987888;28;20298;-80
2022/04/18 02:48:42;;;;;;;6.13;3.60;;;;;;;;;;4976322;28;20290;-79
2022/04/18 02:51:12;;;;;;;3.70;3.00;;;;;;;;;;4970883;28;20196;-80
2022/04/18 02:53:38;;;;;;;5.70;3.37;;;;;;;;;;5004027;28;20223;-79
2022/04/18 02:56:08;;;;;;;4.77;3.10;;;;;;;;;;5022795;28;20238;-79
2022/04/18 02:58:43;;;;;;;4.23;3.17;;;;;;;;;;4993167;28;20194;-80
2022/04/18 03:01:10;;;;;;;3.10;2.80;;;;;;;;;;5009779;28;20191;-79
2022/04/18 03:03:37;;;;;;;5.00;2.97;;;;;;;;;;5010273;28;20187;-80
2022/04/18 03:06:07;;;;;;;3.40;2.70;;;;;;;;;;5010523;28;20230;-79
2022/04/18 03:08:34;;;;;;;5.23;3.43;;;;;;;;;;4987547;28;20621;-80
2022/04/18 03:11:19;;;;;;;3.50;2.70;;;;;;;;;;4997190;28;20199;-80
2022/04/18 03:13:47;;;;;;;3.77;2.87;;;;;;;;;;5017686;28;20191;-79
2022/04/18 03:16:36;;;;;;;5.10;2.80;;;;;;;;;;5008138;28;20225;-79
2022/04/18 03:19:03;;;;;;;3.80;3.03;;;;;;;;;;4986563;28;20192;-79
2022/04/18 03:22:13;;;;;;;3.90;3.33;;;;;;;;;;4969306;28;20613;-80
2022/04/18 03:24:45;;;;;;;4.27;3.10;;;;;;;;;;4936246;28;20201;-79
2022/04/18 03:27:21;;;;;;;4.53;3.10;;;;;;;;;;4966467;28;20219;-80
2022/04/18 03:29:49;;;;;;;4.40;3.10;;;;;;;;;;4983228;28;20210;-78
2022/04/18 03:32:21;;;;;;;3.83;2.97;;;;;;;;;;4987017;28;20222;-79
2022/04/18 03:34:47;;;;;;;6.37;3.40;;;;;;;;;;4998719;28;20183;-80
2022/04/18 03:39:59;;;;;;;5.30;3.50;;;;;;;;;;5009843;28;20191;-79
2022/04/18 03:42:32;;;;;;;5.20;3.17;;;;;;;;;;4996226;28;20195;-78
2022/04/18 03:45:08;;;;;;;4.20;3.20;;;;;;;;;;4997376;28;20198;-79
2022/04/18 03:47:35;;;;;;;4.17;3.37;;;;;;;;;;4996649;28;20226;-79
2022/04/18 03:50:07;;;;;;;4.87;3.53;;;;;;;;;;5012704;28;20214;-79
2022/04/18 03:52:40;;;;;;;5.40;3.57;;;;;;;;;;4994528;28;20286;-79
2022/04/18 03:55:17;;;;;;;5.20;3.50;;;;;;;;;;5013824;28;20210;-79
2022/04/18 03:57:43;;;;;;;4.33;3.40;;;;;;;;;;4994447;28;20289;-78
2022/04/18 04:00:11;;;;;;;4.33;3.10;;;;;;;;;;4996183;28;20191;-78
2022/04/18 04:02:43;;;;;;;4.60;3.20;;;;;;;;;;5008396;28;20647;-78
2022/04/18 04:05:13;;;;;;;4.47;3.50;;;;;;;;;;5009825;28;20206;-79
2022/04/18 04:07:41;;;;;;;5.20;3.47;;;;;;;;;;4985099;28;20611;-79
2022/04/18 04:10:20;;;;;;;4.27;3.77;;;;;;;;;;4991997;28;20679;-79
2022/04/18 04:12:47;;;;;;;4.50;3.60;;;;;;;;;;4991457;28;20191;-80
2022/04/18 04:15:39;;;;;;;3.90;2.97;;;;;;;;;;5007381;28;20585;-80
2022/04/18 04:18:10;;;;;;;3.13;2.80;;;;;;;;;;5006409;28;20202;-79
2022/04/18 04:20:40;;;;;;;4.33;3.20;;;;;;;;;;5002675;28;20187;-78
2022/04/18 04:23:08;;;;;;;4.70;3.70;;;;;;;;;;5003895;28;20640;-79
2022/04/18 04:25:55;;;;;;;4.30;3.40;;;;;;;;;;4998132;28;20329;-78
2022/04/18 04:28:35;;;;;;;5.47;3.93;;;;;;;;;;4994077;28;20183;-77
2022/04/18 04:31:05;;;;;;;5.23;3.80;;;;;;;;;;5010364;28;20678;-78
2022/04/18 04:33:35;;;;;;;6.63;4.17;;;;;;;;;;5007754;28;20195;-78
2022/04/18 04:36:07;;;;;;;4.40;3.73;;;;;;;;;;5009153;28;20261;-79
2022/04/18 04:38:34;;;;;;;4.10;3.47;;;;;;;;;;5020472;28;20245;-75
2022/04/18 04:41:09;;;;;;;5.60;3.40;;;;;;;;;;5009456;28;20206;-76
2022/04/18 04:43:51;;;;;;;5.17;3.17;;;;;;;;;;5009597;28;20172;-76
2022/04/18 04:46:23;;;;;;;6.77;3.60;;;;;;;;;;5008589;28;20214;-78
2022/04/18 04:49:09;;;;;;;4.57;3.13;;;;;;;;;;5013909;28;20257;-78
2022/04/18 04:51:40;;;;;;;5.10;3.30;;;;;;;;;;4992116;28;20741;-78
2022/04/18 04:54:09;;;;;;;4.60;3.30;;;;;;;;;;4996929;28;20271;-78
2022/04/18 04:56:46;;;;;;;4.13;3.30;;;;;;;;;;4989485;28;20275;-78
2022/04/18 04:59:16;;;;;;;4.77;3.50;;;;;;;;;;4995613;28;20183;-78
2022/04/18 05:01:43;;;;;;;5.10;3.70;;;;;;;;;;5013239;28;20561;-80
2022/04/18 05:04:13;;;;;;;5.03;3.70;;;;;;;;;;4993619;28;20579;-79
2022/04/18 05:06:52;;;;;;;6.00;3.30;;;;;;;;;;4993392;28;20266;-79
2022/04/18 05:09:29;;;;;;;5.17;3.43;;;;;;;;;;4991885;28;20233;-79
2022/04/18 05:12:06;;;;;;;5.07;3.77;;;;;;;;;;5010970;28;20211;-79
2022/04/18 05:14:33;;;;;;;5.87;3.43;;;;;;;;;;5004445;28;20239;-80
2022/04/18 05:17:15;;;;;;;5.07;3.37;;;;;;;;;;4977045;28;20215;-80
2022/04/18 05:19:53;;;;;;;3.80;3.07;;;;;;;;;;5006122;28;20783;-79
2022/04/18 05:22:25;;;;;;;4.20;3.30;;;;;;;;;;5001650;28;20655;-76
2022/04/18 05:24:58;;;;;;;5.43;3.10;;;;;;;;;;5004003;28;20201;-79
2022/04/18 05:27:42;;;;;;;5.20;3.17;;;;;;;;;;4982550;28;20686;-78
2022/04/18 05:30:23;;;;;;;5.27;3.20;;;;;;;;;;4993419;28;20194;-80
2022/04/18 05:32:51;;;;;;;5.20;3.20;;;;;;;;;;5003656;28;20183;-79
2022/04/18 05:35:20;;;;;;;4.77;3.00;;;;;;;;;;5006607;28;20222;-79
2022/04/18 05:37:48;;;;;;;4.67;3.17;;;;;;;;;;4987563;28;20263;-79
2022/04/18 05:40:38;;;;;;;4.73;3.37;;;;;;;;;;5001049;28;20281;-80
2022/04/18 05:43:06;;;;;;;6.07;3.43;;;;;;;;;;5010737;28;20190;-79
2022/04/18 05:45:34;;;;;;;5.37;3.70;;;;;;;;;;5007614;28;20191;-79
2022/04/18 05:48:13;;;;;;;4.73;3.60;;;;;;;;;;5009781;28;20187;-78
2022/04/18 05:50:46;;;;;;;4.50;3.20;;;;;;;;;;5009988;28;20194;-78
2022/04/18 05:53:26;;;;;;;5.73;3.53;;;;;;;;;;5012002;28;20210;-79
2022/04/18 05:56:05;;;;;;;4.33;3.40;;;;;;;;;;5010025;28;20269;-79
2022/04/18 05:58:40;;;;;;;4.00;3.20;;;;;;;;;;5005727;28;20194;-80
2022/04/18 06:01:19;;;;;;;3.70;3.20;;;;;;;;;;5006192;28;20188;-79
2022/04/18 06:03:47;;;;;;;5.53;3.80;;;;;;;;;;5023592;28;20242;-79
2022/04/18 06:06:16;;;;;;;5.60;3.30;;;;;;;;;;5010064;28;21217;-78
2022/04/18 06:08:42;;;;;;;5.00;3.33;;;;;;;;;;5003028;28;20183;-79
2022/04/18 06:11:13;;;;;;;4.33;3.40;;;;;;;;;;5008782;28;20213;-78
2022/04/18 06:13:57;;;;;;;4.27;3.20;;;;;;;;;;5001509;28;20182;-79
2022/04/18 06:16:25;;;;;;;4.80;3.03;;;;;;;;;;5005303;28;20221;-80
2022/04/18 06:18:55;;;;;;;5.87;3.33;;;;;;;;;;4989812;28;20269;-78
2022/04/18 06:21:24;;;;;;;7.20;3.47;;;;;;;;;;5020268;28;20183;-76
2022/04/18 06:23:51;;;;;;;4.43;3.27;;;;;;;;;;5011386;28;20619;-79
2022/04/18 06:26:47;;;;;;;4.43;3.30;;;;;;;;;;5001507;28;20222;-79
2022/04/18 06:29:16;;;;;;;4.83;3.20;;;;;;;;;;5020191;28;20717;-82
2022/04/18 06:31:53;;;;;;;3.80;2.83;;;;;;;;;;5005421;28;20182;-80
2022/04/18 06:34:25;;;;;;;5.20;3.67;;;;;;;;;;4989157;28;20222;-79
2022/04/18 06:36:55;;;;;;;4.87;3.17;;;;;;;;;;5021990;28;20642;-79
2022/04/18 06:39:27;;;;;;;3.77;3.10;;;;;;;;;;5003475;28;20179;-80
2022/04/18 06:42:05;;;;;;;4.57;3.20;;;;;;;;;;5002907;28;20183;-80
2022/04/18 06:44:42;;;;;;;4.57;3.17;;;;;;;;;;5002733;28;21012;-80
2022/04/18 06:47:09;;;;;;;4.43;3.20;;;;;;;;;;4990770;28;20206;-80
2022/04/18 06:50:06;;;;;;;4.80;2.90;;;;;;;;;;5004870;28;20603;-77
2022/04/18 06:52:51;;;;;;;3.93;3.20;;;;;;;;;;5007078;28;20603;-79
2022/04/18 06:58:30;;;;;;;3.53;2.97;;;;;;;;;;4984474;28;20600;-78
2022/04/18 07:00:58;;;;;;;4.77;3.10;;;;;;;;;;4990852;28;20557;-79
2022/04/18 07:03:27;;;;;;;4.63;3.13;;;;;;;;;;5006071;28;20727;-78
2022/04/18 07:05:54;;;;;;;4.40;3.07;;;;;;;;;;5001547;28;20214;-79
2022/04/18 07:08:21;;;;;;;4.17;3.00;;;;;;;;;;4991350;28;20214;-78
2022/04/18 07:10:50;;;;;;;3.83;2.77;;;;;;;;;;5011508;28;20770;-79
2022/04/18 07:13:18;;;;;;;5.33;3.27;;;;;;;;;;5007990;28;20187;-78
2022/04/18 07:15:46;;;;;;;4.23;3.03;;;;;;;;;;5006442;28;20206;-79
2022/04/18 07:18:20;;;;;;;4.00;3.10;;;;;;;;;;5006062;28;20660;-79
2022/04/18 07:20:47;;;;;;;3.67;3.00;;;;;;;;;;5000303;28;20286;-79
2022/04/18 07:23:22;;;;;;;3.63;2.90;;;;;;;;;;5009581;28;20184;-79
2022/04/18 07:26:01;;;;;;;3.23;2.83;;;;;;;;;;4991969;28;20257;-77
2022/04/18 07:28:38;;;;;;;4.27;2.90;;;;;;;;;;4995965;28;20489;-78
2022/04/18 07:31:08;;;;;;;4.57;3.03;;;;;;;;;;5009351;28;20279;-78
2022/04/18 07:33:40;;;;;;;6.47;3.33;;;;;;;;;;4998234;28;20229;-78
2022/04/18 07:36:13;;;;;;;4.77;3.30;;;;;;;;;;4980308;28;20290;-79
2022/04/18 07:38:48;;;;;;;3.80;3.10;;;;;;;;;;5020268;28;20191;-78
2022/04/18 07:41:16;;;;;;;4.67;3.30;;;;;;;;;;5009681;28;20179;-78
2022/04/18 07:43:45;;;;;;;4.90;3.40;;;;;;;;;;5008351;28;20612;-78
2022/04/18 07:46:17;;;;;;;4.33;3.20;;;;;;;;;;4995692;28;20301;-78
2022/04/18 07:48:48;;;;;;;4.00;2.60;;;;;;;;;;5007942;28;20198;-78
2022/04/18 07:54:05;;;;;;;4.87;3.17;;;;;;;;;;5022738;28;20752;-78
2022/04/18 07:56:33;;;;;;;4.17;3.00;;;;;;;;;;4993958;28;20218;-79
2022/04/18 07:59:03;;;;;;;5.47;3.47;;;;;;;;;;5008340;28;20198;-78
2022/04/18 08:01:34;;;;;;;4.07;3.30;;;;;;;;;;5002631;28;20190;-77
2022/04/18 08:04:02;;;;;;;4.07;2.80;;;;;;;;;;5009482;28;20206;-78
2022/04/18 08:06:30;;;;;;;4.33;2.80;;;;;;;;;;4987203;28;20326;-79
2022/04/18 08:09:18;;;;;;;3.67;2.80;;;;;;;;;;5001937;28;20755;-78
2022/04/18 08:11:47;;;;;;;4.00;2.93;;;;;;;;;;5004497;28;20214;-79
2022/04/18 08:14:19;;;;;;;4.20;3.30;;;;;;;;;;4990069;28;20640;-78
2022/04/18 08:16:49;;;;;;;4.73;3.43;;;;;;;;;;5002970;28;20256;-81
2022/04/18 08:19:28;;;;;;;5.90;3.83;;;;;;;;;;4990701;28;20239;-78
2022/04/18 08:21:56;;;;;;;4.13;3.37;;;;;;;;;;5006357;28;20195;-78
2022/04/18 08:24:23;;;;;;;5.13;3.30;;;;;;;;;;4992373;28;20195;-77
2022/04/18 08:27:24;;;;;;;5.97;3.10;;;;;;;;;;5025414;28;20282;-78
2022/04/18 08:30:01;;;;;;;4.43;3.40;;;;;;;;;;4987706;28;20242;-77
2022/04/18 08:32:59;;;;;;;6.10;3.60;;;;;;;;;;4996624;28;22145;-77
2022/04/18 08:35:27;;;;;;;5.03;3.17;;;;;;;;;;4990181;28;20301;-77
2022/04/18 08:37:55;;;;;;;4.37;3.30;;;;;;;;;;5005394;28;20198;-76
2022/04/18 08:40:30;;;;;;;4.50;3.20;;;;;;;;;;5004012;28;20628;-78
2022/04/18 08:42:59;;;;;;;4.30;3.20;;;;;;;;;;5003657;28;20187;-79
2022/04/18 08:45:31;;;;;;;4.30;3.20;;;;;;;;;;5007984;28;20194;-77
2022/04/18 08:53:30;;;;;;;4.13;3.13;;;;;;;;;;5020517;28;20207;-78
2022/04/18 08:56:00;;;;;;;3.50;2.80;;;;;;;;;;5010952;28;20218;-77
2022/04/18 08:58:33;;;;;;;4.93;2.97;;;;;;;;;;5009487;28;20217;-77
2022/04/18 09:01:03;;;;;;;4.60;2.80;;;;;;;;;;4987162;28;20188;-78
2022/04/18 09:03:56;;;;;;;3.47;2.60;;;;;;;;;;5008832;28;20195;-77
2022/04/18 09:06:36;;;;;;;3.87;2.70;;;;;;;;;;5010223;28;20202;-78
2022/04/18 09:09:11;;;;;;;4.13;2.97;;;;;;;;;;5003168;28;20203;-79
2022/04/18 09:11:40;;;;;;;3.63;2.80;;;;;;;;;;4988405;28;20214;-79
2022/04/18 09:14:15;;;;;;;3.67;2.73;;;;;;;;;;5004228;28;20199;-78
2022/04/18 09:16:47;;;;;;;3.43;2.80;;;;;;;;;;4987168;28;20231;-79
2022/04/18 09:19:33;;;;;;;3.10;2.57;;;;;;;;;;5001193;28;20189;-79
2022/04/18 09:22:02;;;;;;;6.67;2.90;;;;;;;;;;5002106;28;20191;-78
2022/04/18 09:24:47;;;;;;;3.97;2.43;;;;;;;;;;4977108;28;20202;-78
2022/04/18 09:27:31;;;;;;;3.07;2.50;;;;;;;;;;5005655;28;20215;-78
2022/04/18 09:30:18;;;;;;;2.60;2.40;;;;;;;;;;5005116;28;20286;-79
2022/04/18 09:32:56;;;;;;;3.60;2.43;;;;;;;;;;4990437;28;20198;-77
2022/04/18 09:35:31;;;;;;;5.37;2.13;;;;;;;;;;5006698;28;20261;-78
2022/04/18 09:38:06;;;;;;;4.03;2.73;;;;;;;;;;4988934;28;20242;-79
2022/04/18 09:40:51;;;;;;;3.37;2.40;;;;;;;;;;5011403;28;20202;-78
2022/04/18 09:43:25;;;;;;;3.13;2.43;;;;;;;;;;5011198;28;20188;-77
2022/04/18 09:45:58;;;;;;;3.00;2.40;;;;;;;;;;5005615;28;20203;-78
2022/04/18 09:48:33;;;;;;;3.53;2.50;;;;;;;;;;5001031;28;20271;-77
2022/04/18 09:51:08;;;;;;;2.57;2.27;;;;;;;;;;5023648;28;20186;-77
2022/04/18 09:53:47;;;;;;;3.10;2.17;;;;;;;;;;4989078;28;20191;-80
2022/04/18 09:56:17;;;;;;;3.37;2.50;;;;;;;;;;5011527;28;20241;-81
2022/04/18 09:58:47;;;;;;;3.50;2.10;;;;;;;;;;5005500;28;20195;-76
2022/04/18 10:01:14;;;;;;;3.80;2.60;;;;;;;;;;5024333;28;20193;-77
2022/04/18 10:03:42;;;;;;;3.03;2.23;;;;;;;;;;5027527;28;20187;-78
2022/04/18 10:06:11;;;;;;;3.83;2.37;;;;;;;;;;5000175;28;20277;-78
2022/04/18 10:08:39;;;;;;;3.03;2.27;;;;;;;;;;5007583;28;20215;-79
2022/04/18 10:11:08;;;;;;;4.20;2.20;;;;;;;;;;5009447;28;20209;-79
2022/04/18 10:13:36;;;;;;;2.83;2.30;;;;;;;;;;5009649;28;20191;-78
2022/04/18 10:16:03;;;;;;;2.20;2.00;;;;;;;;;;5006535;28;20211;-79
2022/04/18 10:18:30;;;;;;;4.00;2.30;;;;;;;;;;5006007;28;20195;-79
2022/04/18 10:21:16;;;;;;;2.80;2.10;;;;;;;;;;5009061;28;20253;-78
2022/04/18 10:23:52;;;;;;;2.73;2.20;;;;;;;;;;5005214;28;20241;-77
2022/04/18 10:26:42;;;;;;;2.60;2.10;;;;;;;;;;5005003;28;20206;-79
2022/04/18 10:29:21;;;;;;;2.53;1.90;;;;;;;;;;5003576;28;20191;-79
2022/04/18 10:31:49;;;;;;;3.63;1.97;;;;;;;;;;4989734;28;20191;-78
2022/04/18 10:34:34;;;;;;;3.60;2.20;;;;;;;;;;5005494;28;20677;-79
2022/04/18 10:37:03;;;;;;;4.13;2.20;;;;;;;;;;5005746;28;20722;-79
2022/04/18 10:39:55;;;;;;;2.70;2.30;;;;;;;;;;4999243;28;20194;-79
2022/04/18 10:42:40;;;;;;;3.07;2.03;;;;;;;;;;5008055;28;20238;-78
2022/04/18 10:45:34;;;;;;;2.73;1.97;;;;;;;;;;5009875;28;20568;-79
2022/04/18 10:48:11;;;;;;;3.43;2.20;;;;;;;;;;4984213;28;20225;-79
2022/04/18 10:50:42;;;;;;;2.57;1.90;;;;;;;;;;5005275;28;20195;-79
2022/04/18 10:53:13;;;;;;;2.57;2.20;;;;;;;;;;5009398;28;20289;-82
2022/04/18 10:55:59;;;;;;;2.90;2.30;;;;;;;;;;5008693;28;20345;-79
2022/04/18 10:58:27;;;;;;;2.67;2.13;;;;;;;;;;5003562;28;20180;-77
2022/04/18 11:01:00;;;;;;;3.20;1.90;;;;;;;;;;5008686;28;20183;-77
2022/04/18 11:03:48;;;;;;;2.10;1.80;;;;;;;;;;5000328;28;20186;-78
2022/04/18 11:06:18;;;;;;;2.57;2.10;;;;;;;;;;4994116;28;20231;-81
2022/04/18 11:08:59;;;;;;;2.43;2.20;;;;;;;;;;5021465;28;20647;-79
2022/04/18 11:11:33;;;;;;;2.20;2.00;;;;;;;;;;5001745;28;20203;-78
2022/04/18 11:14:00;;;;;;;2.40;1.80;;;;;;;;;;5004911;28;20184;-78
2022/04/18 11:16:26;;;;;;;2.23;1.80;;;;;;;;;;5004492;28;20253;-78
2022/04/18 11:19:09;;;;;;;2.63;2.00;;;;;;;;;;4988707;28;20183;-77
2022/04/18 11:22:03;;;;;;;2.97;2.30;;;;;;;;;;4997554;28;20195;-78
2022/04/18 11:24:44;;;;;;;3.27;2.23;;;;;;;;;;4999657;28;20203;-78
2022/04/18 11:27:10;;;;;;;2.63;1.90;;;;;;;;;;5012767;28;20215;-78
2022/04/18 11:29:38;;;;;;;2.47;2.03;;;;;;;;;;5006410;28;20969;-78
2022/04/18 11:32:06;;;;;;;2.60;2.20;;;;;;;;;;5013360;28;20503;-78
2022/04/18 11:34:33;;;;;;;3.47;2.30;;;;;;;;;;5014165;28;20187;-78
2022/04/18 11:37:01;;;;;;;2.10;1.90;;;;;;;;;;5012396;28;20247;-78
2022/04/18 11:39:43;;;;;;;2.63;2.00;;;;;;;;;;5013759;28;20187;-79
2022/04/18 11:42:10;;;;;;;2.10;1.80;;;;;;;;;;5011881;28;20218;-77
2022/04/18 11:44:42;;;;;;;3.77;2.03;;;;;;;;;;5006170;28;20265;-78
2022/04/18 11:47:10;;;;;;;2.53;2.20;;;;;;;;;;5007158;28;20351;-77
2022/04/18 11:49:38;;;;;;;3.53;2.10;;;;;;;;;;5004919;28;20219;-73
2022/04/18 11:52:09;;;;;;;3.17;2.33;;;;;;;;;;5022369;28;20192;-78
2022/04/18 11:54:52;;;;;;;2.90;2.10;;;;;;;;;;5007225;28;20194;-80
2022/04/18 11:57:19;;;;;;;2.80;2.10;;;;;;;;;;5008851;28;20462;-78
2022/04/18 11:59:50;;;;;;;3.03;1.77;;;;;;;;;;4993040;28;20229;-79
2022/04/18 12:07:52;;;;;;;1.90;1.80;;;;;;;;;;5011420;28;20222;-79
2022/04/18 12:10:23;;;;;;;2.47;1.90;;;;;;;;;;5010261;28;20191;-81
2022/04/18 12:12:50;;;;;;;2.63;2.10;;;;;;;;;;5016139;28;20184;-81
2022/04/18 12:15:27;;;;;;;2.43;2.00;;;;;;;;;;5014362;28;20217;-78
2022/04/18 12:18:17;;;;;;;2.30;2.00;;;;;;;;;;5010602;28;20677;-79
2022/04/18 12:21:04;;;;;;;2.20;1.90;;;;;;;;;;5000269;28;20639;-79
2022/04/18 12:23:31;;;;;;;2.47;2.00;;;;;;;;;;5003427;28;20195;-77
2022/04/18 12:25:58;;;;;;;2.60;1.90;;;;;;;;;;5002467;28;20213;-79
2022/04/18 12:28:28;;;;;;;3.70;2.03;;;;;;;;;;5004623;28;20794;-77
2022/04/18 12:30:58;;;;;;;1.70;1.60;;;;;;;;;;5002052;28;20692;-79
2022/04/18 12:33:31;;;;;;;2.20;2.00;;;;;;;;;;5001401;28;20655;-80
2022/04/18 12:36:00;;;;;;;2.10;1.90;;;;;;;;;;5005968;28;20238;-78
2022/04/18 12:38:32;;;;;;;2.03;1.80;;;;;;;;;;5004751;28;20192;-79
2022/04/18 12:40:59;;;;;;;2.77;2.00;;;;;;;;;;5006715;28;20191;-79
2022/04/18 12:43:31;;;;;;;1.90;1.70;;;;;;;;;;5008154;28;20201;-79
2022/04/18 12:46:01;;;;;;;2.10;1.80;;;;;;;;;;5012658;28;20221;-79
2022/04/18 12:48:32;;;;;;;2.77;1.97;;;;;;;;;;5010156;28;20188;-78
2022/04/18 12:51:00;;;;;;;2.17;1.97;;;;;;;;;;5008855;28;20207;-79
2022/04/18 12:53:46;;;;;;;2.27;1.90;;;;;;;;;;5003644;28;20191;-80
2022/04/18 12:56:30;;;;;;;2.60;1.80;;;;;;;;;;5008070;28;20233;-79
2022/04/18 12:59:06;;;;;;;2.80;2.00;;;;;;;;;;5019818;28;20273;-79
2022/04/18 13:01:36;;;;;;;3.50;2.10;;;;;;;;;;5009491;28;20195;-79
2022/04/18 13:04:06;;;;;;;2.60;2.20;;;;;;;;;;5007579;28;20202;-78
2022/04/18 13:06:33;;;;;;;3.40;1.93;;;;;;;;;;5008621;28;20762;-78
2022/04/18 13:09:09;;;;;;;2.33;1.90;;;;;;;;;;5006017;28;20346;-79
2022/04/18 13:11:42;;;;;;;2.00;1.80;;;;;;;;;;5001519;28;20205;-79
2022/04/18 13:14:10;;;;;;;2.13;1.97;;;;;;;;;;5022776;28;20187;-78
2022/04/18 13:16:39;;;;;;;2.30;1.90;;;;;;;;;;5005703;28;20374;-79
2022/04/18 13:19:12;;;;;;;2.43;1.90;;;;;;;;;;5003888;28;20241;-79
2022/04/18 13:21:42;;;;;;;2.90;1.87;;;;;;;;;;5001748;28;20220;-79
2022/04/18 13:24:12;;;;;;;1.97;1.70;;;;;;;;;;5003453;28;20571;-78
2022/04/18 13:26:39;;;;;;;2.50;2.07;;;;;;;;;;5007288;28;20214;-79
2022/04/18 13:29:06;;;;;;;2.37;1.90;;;;;;;;;;5006937;28;20196;-79
2022/04/18 13:31:32;;;;;;;3.17;1.70;;;;;;;;;;4988995;28;20198;-79
2022/04/18 13:34:02;;;;;;;2.93;2.00;;;;;;;;;;5002537;28;20193;-79
2022/04/18 13:36:38;;;;;;;2.13;1.93;;;;;;;;;;4996944;28;20225;-79
2022/04/18 13:39:12;;;;;;;2.13;1.70;;;;;;;;;;5006067;28;20582;-80
2022/04/18 13:41:41;;;;;;;1.90;1.57;;;;;;;;;;5001745;28;20191;-79
2022/04/18 13:44:08;;;;;;;2.00;1.80;;;;;;;;;;5009949;28;20186;-79
2022/04/18 13:46:39;;;;;;;1.93;1.73;;;;;;;;;;5002378;28;20390;-79
2022/04/18 13:49:09;;;;;;;1.93;1.70;;;;;;;;;;5003918;28;20224;-79
2022/04/18 13:51:36;;;;;;;1.70;1.60;;;;;;;;;;4997382;28;20218;-79
2022/04/18 13:54:06;;;;;;;2.13;1.90;;;;;;;;;;5006913;28;20233;-78
2022/04/18 13:56:32;;;;;;;2.13;1.93;;;;;;;;;;5005616;28;20220;-79
2022/04/18 13:59:02;;;;;;;2.20;2.00;;;;;;;;;;5007663;28;20195;-79
2022/04/18 14:01:38;;;;;;;2.00;1.90;;;;;;;;;;4993608;28;20199;-78
2022/04/18 14:04:05;;;;;;;2.20;2.00;;;;;;;;;;5008791;28;20182;-79
2022/04/18 14:06:34;;;;;;;2.13;1.93;;;;;;;;;;5022241;28;20220;-79
2022/04/18 14:09:02;;;;;;;2.50;2.00;;;;;;;;;;5018415;28;20207;-79
2022/04/18 14:11:29;;;;;;;3.50;1.90;;;;;;;;;;5017643;28;20199;-79
2022/04/18 14:13:55;;;;;;;4.27;1.90;;;;;;;;;;5014926;28;20196;-79
2022/04/18 14:21:56;;;;;;;1.70;1.60;;;;;;;;;;5018869;28;20315;-79
2022/04/18 14:24:25;;;;;;;1.80;1.60;;;;;;;;;;5010888;28;20191;-78
2022/04/18 14:26:51;;;;;;;1.90;1.70;;;;;;;;;;5010936;28;20260;-79
2022/04/18 14:29:18;;;;;;;2.50;1.97;;;;;;;;;;5009772;28;20732;-80
2022/04/18 14:31:45;;;;;;;2.03;1.67;;;;;;;;;;5012021;28;20318;-79
2022/04/18 14:34:12;;;;;;;2.37;1.80;;;;;;;;;;5003650;28;20189;-79
2022/04/18 14:36:41;;;;;;;2.87;1.90;;;;;;;;;;4991691;28;20230;-79
2022/04/18 14:39:08;;;;;;;1.80;1.70;;;;;;;;;;5009191;28;20180;-79
2022/04/18 14:41:34;;;;;;;1.70;1.60;;;;;;;;;;5006714;28;20181;-79
2022/04/18 14:44:02;;;;;;;2.83;1.80;;;;;;;;;;5008655;28;20191;-80
2022/04/18 14:46:29;;;;;;;2.40;1.70;;;;;;;;;;5009886;28;20221;-80
2022/04/18 14:48:57;;;;;;;1.97;1.77;;;;;;;;;;5007147;28;20187;-79
2022/04/18 14:51:27;;;;;;;3.23;2.17;;;;;;;;;;5008473;28;20197;-83
2022/04/18 14:53:53;;;;;;;2.27;1.90;;;;;;;;;;5014285;28;20215;-80
2022/04/18 14:56:23;;;;;;;1.70;1.60;;;;;;;;;;5010430;28;20761;-79
2022/04/18 14:58:51;;;;;;;2.20;1.93;;;;;;;;;;5012030;28;20186;-80
2022/04/18 15:01:21;;;;;;;2.63;1.80;;;;;;;;;;5012876;28;20220;-79
2022/04/18 15:03:48;;;;;;;2.27;1.77;;;;;;;;;;5009648;28;20231;-80
2022/04/18 15:06:15;;;;;;;1.70;1.60;;;;;;;;;;5007116;28;20301;-79
2022/04/18 15:08:42;;;;;;;1.87;1.57;;;;;;;;;;5009861;28;20282;-79
2022/04/18 15:11:11;;;;;;;1.50;1.40;;;;;;;;;;5013485;28;20202;-80
2022/04/18 15:13:41;;;;;;;1.70;1.60;;;;;;;;;;5011328;28;20687;-80
2022/04/18 15:16:14;;;;;;;2.17;1.80;;;;;;;;;;5007928;28;20595;-79
2022/04/18 15:18:40;;;;;;;1.90;1.70;;;;;;;;;;4991903;28;20188;-80
2022/04/18 15:21:08;;;;;;;1.70;1.40;;;;;;;;;;5012514;28;20238;-80
2022/04/18 15:23:34;;;;;;;2.37;1.87;;;;;;;;;;5014014;28;20499;-80
2022/04/18 15:26:04;;;;;;;2.43;1.50;;;;;;;;;;5008202;28;20211;-79
2022/04/18 15:28:31;;;;;;;1.70;1.60;;;;;;;;;;5010211;28;20654;-80
2022/04/18 15:33:43;;;;;;;1.90;1.60;;;;;;;;;;5007438;28;20606;-79
2022/04/18 15:36:10;;;;;;;3.27;1.60;;;;;;;;;;5009921;28;20567;-79
2022/04/18 15:38:37;;;;;;;1.50;1.40;;;;;;;;;;5008526;28;20255;-79
2022/04/18 15:41:03;;;;;;;1.77;1.60;;;;;;;;;;5001337;28;20185;-80
2022/04/18 15:43:33;;;;;;;1.83;1.70;;;;;;;;;;5004055;28;20844;-79
2022/04/18 15:46:00;;;;;;;1.97;1.77;;;;;;;;;;5003880;28;20604;-79